Time;durP1;ratioP1;P1;durP2;ratioP2;P2;SDS_P1;SDS_P2;PMS_P1;PMS_P2;Temp;Humidity;BMP_temperature;BMP_pressure;BME280_temperature;BME280_humidity;BME280_pressure;Samples;Min_cycle;Max_cycle;Signal;HPM_P1;HPM_P2
2020/12/16 00:01:51;;;;;;;11.32;9.73;;;;;;;6.94;71.92;95314.72;4992449;28;20507;-70
2020/12/16 00:04:17;;;;;;;12.45;9.35;;;;;;;7.03;72.62;95315.72;4976544;28;20101;-69
2020/12/16 00:06:42;;;;;;;10.75;9.65;;;;;;;7.07;71.64;95319.38;4976454;28;20039;-69
2020/12/16 00:09:07;;;;;;;10.18;9.05;;;;;;;7.01;72.26;95301.97;4994007;28;20030;-69
2020/12/16 00:11:34;;;;;;;11.35;9.30;;;;;;;7.04;71.47;95298.78;4995813;28;20113;-69
2020/12/16 00:13:59;;;;;;;10.18;9.15;;;;;;;7.15;71.26;95308.19;4993960;28;20129;-70
2020/12/16 00:16:24;;;;;;;11.57;10.30;;;;;;;7.08;71.37;95305.09;4993726;28;20134;-70
2020/12/16 00:18:50;;;;;;;10.95;8.95;;;;;;;7.31;70.67;95330.03;4976291;28;20500;-69
2020/12/16 00:21:20;;;;;;;11.43;9.02;;;;;;;7.31;71.24;95348.53;4993595;28;20085;-69
2020/12/16 00:23:45;;;;;;;11.00;9.63;;;;;;;7.23;70.66;95336.72;4995827;28;20026;-69
2020/12/16 00:26:13;;;;;;;10.80;9.70;;;;;;;7.21;71.17;95349.41;4993817;28;20045;-69
2020/12/16 00:28:38;;;;;;;11.60;10.30;;;;;;;7.14;71.38;95343.66;4993444;28;20039;-68
2020/12/16 00:31:03;;;;;;;10.65;9.50;;;;;;;7.20;70.83;95355.00;4993637;28;20138;-70
2020/12/16 00:33:28;;;;;;;12.98;10.25;;;;;;;7.17;71.28;95360.84;4993049;28;20485;-69
2020/12/16 00:35:54;;;;;;;12.85;9.95;;;;;;;7.01;71.01;95337.16;4995682;28;20499;-68
2020/12/16 00:38:19;;;;;;;11.57;10.45;;;;;;;6.97;71.35;95328.19;4993112;28;20042;-69
2020/12/16 00:40:44;;;;;;;12.93;9.90;;;;;;;7.07;71.29;95340.56;4993471;28;20030;-69
2020/12/16 00:43:09;;;;;;;10.05;8.18;;;;;;;7.08;70.51;95336.84;4993091;28;20129;-70
2020/12/16 00:45:35;;;;;;;12.05;10.05;;;;;;;7.15;71.01;95355.81;4993501;28;20030;-69
2020/12/16 00:48:00;;;;;;;15.57;10.00;;;;;;;7.13;71.16;95355.31;4995314;28;20085;-69
2020/12/16 00:50:25;;;;;;;10.45;9.20;;;;;;;6.89;71.78;95320.84;4993122;28;20062;-70
2020/12/16 00:52:51;;;;;;;10.82;9.05;;;;;;;7.00;71.45;95355.94;4993013;28;20121;-69
2020/12/16 00:55:16;;;;;;;9.50;8.50;;;;;;;6.86;71.76;95324.03;4993290;28;20046;-68
2020/12/16 00:57:43;;;;;;;10.60;8.73;;;;;;;6.99;71.92;95339.28;4975512;28;20053;-68
2020/12/16 01:00:10;;;;;;;9.80;8.80;;;;;;;6.86;72.09;95331.97;4993037;28;20027;-69
2020/12/16 01:02:46;;;;;;;8.93;8.02;;;;;;;6.83;72.86;95329.88;4994196;28;20080;-69
2020/12/16 01:05:15;;;;;;;9.90;8.18;;;;;;;6.89;72.50;95341.19;4993156;28;20056;-70
2020/12/16 01:07:41;;;;;;;10.65;7.47;;;;;;;6.82;72.58;95335.44;4992823;28;20038;-68
2020/12/16 01:10:13;;;;;;;8.52;7.72;;;;;;;6.84;72.17;95354.47;4992618;28;20511;-68
2020/12/16 01:12:40;;;;;;;12.70;8.25;;;;;;;6.87;72.33;95348.63;4991336;28;20035;-68
2020/12/16 01:15:11;;;;;;;9.77;6.72;;;;;;;6.65;72.56;95299.56;4992886;28;20029;-69
2020/12/16 01:17:41;;;;;;;7.35;6.55;;;;;;;6.82;71.92;95320.38;4994797;28;20388;-69
2020/12/16 01:20:08;;;;;;;7.95;7.15;;;;;;;6.94;72.80;95333.22;4992720;28;20134;-68
2020/12/16 01:22:38;;;;;;;7.30;6.60;;;;;;;6.84;72.17;95315.59;4992550;28;20064;-69
2020/12/16 01:25:05;;;;;;;8.20;6.53;;;;;;;6.94;72.10;95344.59;4992419;28;20034;-69
2020/12/16 01:27:30;;;;;;;7.47;6.78;;;;;;;6.77;71.77;95305.31;4992668;28;20045;-69
2020/12/16 01:29:55;;;;;;;7.72;6.82;;;;;;;6.93;72.07;95343.03;4994369;28;20027;-69
2020/12/16 01:32:21;;;;;;;8.73;7.57;;;;;;;6.45;72.08;95289.94;4991887;28;20030;-68
2020/12/16 01:34:46;;;;;;;7.57;6.72;;;;;;;6.50;72.33;95297.06;4992563;28;20533;-69
2020/12/16 01:37:11;;;;;;;7.68;6.45;;;;;;;6.62;72.60;95313.34;4992303;28;20412;-69
2020/12/16 01:39:36;;;;;;;7.57;6.78;;;;;;;6.45;72.81;95292.59;4992312;28;20048;-69
2020/12/16 01:42:02;;;;;;;7.80;6.28;;;;;;;6.50;73.10;95305.00;4992191;28;20378;-69
2020/12/16 01:44:29;;;;;;;6.70;6.00;;;;;;;6.71;73.08;95343.44;4994346;28;20033;-69
2020/12/16 01:46:56;;;;;;;6.40;5.80;;;;;;;6.61;72.51;95342.72;4992397;28;20512;-68
2020/12/16 01:49:22;;;;;;;7.28;6.53;;;;;;;6.65;72.41;95352.44;4992102;28;20053;-68
2020/12/16 01:51:52;;;;;;;7.88;7.10;;;;;;;6.46;72.28;95325.09;4991886;28;20121;-70
2020/12/16 01:54:18;;;;;;;7.90;7.10;;;;;;;6.57;72.90;95345.09;4992114;28;20038;-68
2020/12/16 01:56:48;;;;;;;6.93;6.22;;;;;;;6.43;73.42;95325.63;4976641;28;20038;-68
2020/12/16 01:59:16;;;;;;;7.93;6.60;;;;;;;6.47;73.31;95342.50;4991758;28;20436;-68
2020/12/16 02:01:43;;;;;;;7.22;6.53;;;;;;;6.44;73.50;95335.13;4991371;28;20057;-68
2020/12/16 02:04:11;;;;;;;8.77;7.88;;;;;;;6.44;73.06;95335.13;4991832;28;20069;-68
2020/12/16 02:06:36;;;;;;;8.27;7.10;;;;;;;6.42;73.47;95331.97;4992007;28;20109;-69
2020/12/16 02:09:07;;;;;;;8.55;7.53;;;;;;;6.27;73.32;95311.69;4993523;28;20424;-68
2020/12/16 02:11:35;;;;;;;7.45;6.75;;;;;;;6.36;73.60;95322.50;4991997;28;20043;-69
2020/12/16 02:14:05;;;;;;;8.98;7.68;;;;;;;6.20;74.05;95317.28;4991732;28;20037;-69
2020/12/16 02:16:31;;;;;;;8.35;7.00;;;;;;;6.27;73.86;95319.63;4991686;28;20057;-69
2020/12/16 02:18:56;;;;;;;7.85;7.05;;;;;;;6.14;73.93;95305.19;4991411;28;20046;-70
2020/12/16 02:21:22;;;;;;;7.03;6.32;;;;;;;6.37;73.94;95342.56;4991087;28;20186;-70
2020/12/16 02:23:49;;;;;;;7.75;6.78;;;;;;;5.84;73.84;95269.09;4993204;28;20037;-70
2020/12/16 02:26:15;;;;;;;8.20;6.82;;;;;;;6.29;74.02;95335.97;4991754;28;20050;-70
2020/12/16 02:28:41;;;;;;;8.70;7.40;;;;;;;6.27;74.13;95329.41;4991273;28;20038;-70
2020/12/16 02:31:08;;;;;;;7.93;7.13;;;;;;;6.13;73.63;95302.78;4991467;28;20488;-70
2020/12/16 02:33:33;;;;;;;7.60;6.80;;;;;;;6.28;74.07;95333.63;4990690;28;20042;-71
2020/12/16 02:35:59;;;;;;;7.35;6.68;;;;;;;5.64;74.67;95282.38;4993282;28;20536;-70
2020/12/16 02:38:24;;;;;;;9.05;7.82;;;;;;;5.71;75.34;95328.50;4991116;28;20504;-70
2020/12/16 02:40:49;;;;;;;12.32;9.63;;;;;;;5.32;76.39;95298.50;4991171;28;20513;-70
2020/12/16 02:43:15;;;;;;;14.52;12.75;;;;;;;5.72;75.46;95329.31;4991034;28;20467;-70
2020/12/16 02:45:40;;;;;;;18.70;12.98;;;;;;;5.36;76.70;95318.81;4991284;28;20073;-70
2020/12/16 02:48:05;;;;;;;16.30;13.80;;;;;;;5.15;77.47;95319.91;4991257;28;20056;-70
2020/12/16 02:50:30;;;;;;;19.27;13.68;;;;;;;5.41;76.85;95344.41;4992917;28;20038;-70
2020/12/16 02:52:56;;;;;;;20.50;14.48;;;;;;;5.27;76.68;95324.88;4990807;28;20061;-70
2020/12/16 02:55:21;;;;;;;18.13;14.57;;;;;;;5.45;76.19;95351.53;4990975;28;20042;-69
2020/12/16 02:57:46;;;;;;;22.27;14.93;;;;;;;5.19;76.85;95321.75;4990813;28;20049;-70
2020/12/16 03:00:12;;;;;;;18.35;14.20;;;;;;;4.72;77.81;95279.84;4973341;28;20034;-69
2020/12/16 03:02:37;;;;;;;17.55;14.10;;;;;;;5.01;78.00;95318.84;4992074;28;20477;-70
2020/12/16 03:05:03;;;;;;;16.63;13.82;;;;;;;5.01;77.87;95338.09;4990994;28;20050;-71
2020/12/16 03:07:28;;;;;;;16.05;13.82;;;;;;;4.82;77.52;95282.47;4990756;28;20046;-70
2020/12/16 03:09:53;;;;;;;18.55;15.07;;;;;;;5.34;77.24;95334.13;4973176;28;20038;-70
2020/12/16 03:12:19;;;;;;;23.08;15.60;;;;;;;5.26;77.27;95296.94;4990514;28;20112;-70
2020/12/16 03:14:44;;;;;;;19.83;14.25;;;;;;;5.38;77.28;95298.25;4975305;28;20451;-69
2020/12/16 03:17:09;;;;;;;16.70;14.23;;;;;;;5.55;76.61;95310.34;4990765;28;20389;-70
2020/12/16 03:19:35;;;;;;;17.63;15.77;;;;;;;5.11;76.15;95256.34;4990541;28;20065;-71
2020/12/16 03:22:00;;;;;;;18.92;15.60;;;;;;;5.58;76.32;95329.09;4989755;28;20042;-69
2020/12/16 03:24:26;;;;;;;17.00;14.00;;;;;;;5.52;76.87;95305.59;4989622;28;20222;-70
2020/12/16 03:26:51;;;;;;;15.63;13.20;;;;;;;5.19;76.98;95311.19;4992410;28;20118;-69
2020/12/16 03:29:16;;;;;;;20.98;14.82;;;;;;;5.33;76.78;95314.09;4972757;28;20085;-69
2020/12/16 03:31:42;;;;;;;15.80;13.10;;;;;;;5.39;76.43;95299.03;4972409;28;20046;-69
2020/12/16 03:34:07;;;;;;;19.52;15.90;;;;;;;5.50;76.08;95311.16;4990280;28;20038;-69
2020/12/16 03:36:34;;;;;;;19.95;16.27;;;;;;;5.56;75.60;95320.63;4989699;28;20062;-71
2020/12/16 03:38:59;;;;;;;18.98;14.98;;;;;;;5.60;75.81;95321.69;4992185;28;20026;-68
2020/12/16 03:41:25;;;;;;;17.08;14.63;;;;;;;5.51;75.70;95328.56;4990138;28;20052;-71
2020/12/16 03:43:51;;;;;;;18.63;14.77;;;;;;;5.48;76.22;95337.81;4990285;28;20085;-70
2020/12/16 03:46:16;;;;;;;16.13;13.57;;;;;;;5.44;75.77;95336.75;4990394;28;20031;-69
2020/12/16 03:48:43;;;;;;;18.77;15.43;;;;;;;5.55;76.19;95340.16;4990068;28;20173;-68
2020/12/16 03:51:11;;;;;;;15.73;14.00;;;;;;;5.50;75.99;95340.16;4989974;28;20125;-69
2020/12/16 03:53:38;;;;;;;18.40;15.52;;;;;;;5.36;76.33;95324.09;4992307;28;20038;-69
2020/12/16 03:56:08;;;;;;;21.52;15.38;;;;;;;5.52;75.95;95356.50;4990053;28;20057;-73
2020/12/16 03:58:34;;;;;;;16.77;14.80;;;;;;;5.22;75.89;95310.69;4990158;28;20042;-71
2020/12/16 04:01:06;;;;;;;18.73;14.65;;;;;;;5.57;75.58;95374.97;4989981;28;20130;-71
2020/12/16 04:03:32;;;;;;;;;;;;;;;5.14;76.37;95377.13;4989998;28;20047;-70
2020/12/16 04:05:57;;;;;;;16.30;13.70;;;;;;;4.60;78.29;95345.16;4992113;28;19921;-69
2020/12/16 04:08:23;;;;;;;17.35;15.45;;;;;;;4.58;79.12;95370.97;4972436;28;20098;-69
2020/12/16 04:10:48;;;;;;;19.83;15.52;;;;;;;4.68;78.39;95357.84;4989976;28;20445;-70
2020/12/16 04:13:14;;;;;;;23.65;17.05;;;;;;;5.07;77.95;95381.09;4972429;28;20117;-69
2020/12/16 04:15:42;;;;;;;26.38;17.98;;;;;;;5.09;77.19;95358.66;4990325;28;20117;-69
2020/12/16 04:18:07;;;;;;;16.50;14.00;;;;;;;5.17;77.14;95347.59;4990056;28;20030;-70
2020/12/16 04:20:33;;;;;;;21.42;15.88;;;;;;;4.65;77.30;95377.56;4991761;28;20025;-70
2020/12/16 04:22:58;;;;;;;24.02;16.35;;;;;;;4.33;77.89;95348.00;4989853;28;20408;-69
2020/12/16 04:25:24;;;;;;;29.05;18.23;;;;;;;4.69;78.10;95370.72;4990036;28;20050;-69
2020/12/16 04:27:49;;;;;;;22.88;16.85;;;;;;;4.49;77.99;95367.25;4989876;28;20504;-69
2020/12/16 04:30:14;;;;;;;30.63;19.08;;;;;;;3.85;79.28;95347.28;4989574;28;20030;-69
2020/12/16 04:32:39;;;;;;;31.20;20.10;;;;;;;3.78;80.27;95370.41;4991147;28;20057;-70
2020/12/16 04:35:05;;;;;;;36.63;22.20;;;;;;;3.94;81.01;95389.69;4972480;28;20496;-69
2020/12/16 04:37:30;;;;;;;31.80;20.63;;;;;;;4.08;80.04;95388.19;4989849;28;20050;-70
2020/12/16 04:39:55;;;;;;;38.97;22.67;;;;;;;4.40;79.43;95380.13;4989741;28;20046;-69
2020/12/16 04:42:20;;;;;;;39.22;22.23;;;;;;;3.93;79.78;95378.38;4989426;28;20129;-69
2020/12/16 04:44:46;;;;;;;45.30;24.02;;;;;;;4.04;79.37;95347.63;4991752;28;20041;-69
2020/12/16 04:47:12;;;;;;;39.95;22.85;;;;;;;4.61;78.57;95394.97;4991308;28;20044;-69
2020/12/16 04:49:37;;;;;;;43.88;22.95;;;;;;;4.29;79.03;95394.31;4993205;28;20031;-69
2020/12/16 04:52:03;;;;;;;41.22;23.52;;;;;;;4.28;78.81;95363.78;4993029;28;20125;-70
2020/12/16 04:54:29;;;;;;;37.03;23.27;;;;;;;4.61;78.33;95389.72;4993249;28;20046;-69
2020/12/16 04:56:58;;;;;;;40.40;22.25;;;;;;;3.83;81.40;95396.72;4995059;28;20101;-69
2020/12/16 04:59:24;;;;;;;45.17;23.95;;;;;;;4.02;80.72;95397.09;4975522;28;20133;-69
2020/12/16 05:01:49;;;;;;;54.33;26.75;;;;;;;4.28;80.01;95400.66;4992491;28;20584;-69
2020/12/16 05:04:14;;;;;;;48.60;24.80;;;;;;;4.02;79.82;95392.63;4993178;28;20050;-69
2020/12/16 05:06:42;;;;;;;53.15;26.65;;;;;;;3.90;80.14;95390.22;4993058;28;20042;-69
2020/12/16 05:09:15;;;;;;;48.40;24.88;;;;;;;4.48;79.44;95407.84;4992950;28;20061;-70
2020/12/16 05:11:48;;;;;;;48.38;26.13;;;;;;;4.49;78.83;95406.78;4994701;28;20038;-69
2020/12/16 05:14:24;;;;;;;50.38;25.88;;;;;;;4.62;78.78;95401.03;4992914;28;20037;-69
2020/12/16 05:16:51;;;;;;;51.88;26.33;;;;;;;4.27;79.06;95380.63;4992681;28;20393;-69
2020/12/16 05:19:39;;;;;;;55.47;26.13;;;;;;;4.13;79.47;95402.16;4992521;28;20062;-69
2020/12/16 05:22:25;;;;;;;54.97;26.85;;;;;;;4.14;79.57;95393.19;4974950;28;20483;-69
2020/12/16 05:24:53;;;;;;;62.10;27.13;;;;;;;4.13;79.39;95394.25;4992711;28;20511;-71
2020/12/16 05:27:29;;;;;;;137.13;29.17;;;;;;;3.59;81.90;95405.03;4992657;28;20026;-69
2020/12/16 05:30:00;;;;;;;120.88;28.10;;;;;;;3.92;80.95;95413.63;4994376;28;20345;-69
2020/12/16 05:32:34;;;;;;;91.20;29.33;;;;;;;4.07;80.80;95421.63;4991964;28;20061;-70
2020/12/16 05:35:01;;;;;;;62.10;27.10;;;;;;;3.83;80.55;95375.69;4992441;28;20181;-69
2020/12/16 05:37:31;;;;;;;82.20;31.35;;;;;;;4.41;79.63;95406.22;4992482;28;20054;-70
2020/12/16 05:40:12;;;;;;;73.78;28.35;;;;;;;4.39;79.52;95410.16;4992353;28;20042;-69
2020/12/16 05:42:39;;;;;;;55.78;26.23;;;;;;;4.00;80.35;95426.31;4992170;28;20124;-70
2020/12/16 05:45:14;;;;;;;54.28;26.70;;;;;;;4.38;79.63;95403.31;4976819;28;20488;-71
2020/12/16 05:47:41;;;;;;;53.72;26.10;;;;;;;4.71;79.20;95415.28;4992895;28;20489;-70
2020/12/16 05:50:17;;;;;;;41.20;22.65;;;;;;;5.03;78.71;95428.25;4991866;28;20053;-69
2020/12/16 05:52:44;;;;;;;73.93;28.05;;;;;;;4.85;77.45;95415.56;4991650;28;20053;-69
2020/12/16 05:55:10;;;;;;;47.17;25.50;;;;;;;4.85;77.14;95415.56;4974578;28;20054;-70
2020/12/16 05:57:35;;;;;;;58.17;27.02;;;;;;;4.59;78.05;95426.03;4991704;28;20046;-70
2020/12/16 06:00:11;;;;;;;53.65;24.58;;;;;;;4.06;78.97;95414.75;4993213;28;20037;-70
2020/12/16 06:02:41;;;;;;;43.17;22.70;;;;;;;4.72;78.74;95430.03;4991682;28;20046;-70
2020/12/16 06:05:08;;;;;;;72.03;27.98;;;;;;;4.92;78.76;95426.66;4991741;28;20046;-70
2020/12/16 06:07:38;;;;;;;65.22;27.95;;;;;;;4.98;78.24;95409.00;4992069;28;20042;-68
2020/12/16 06:10:04;;;;;;;45.03;24.25;;;;;;;5.05;77.46;95406.91;4974248;28;20413;-69
2020/12/16 06:12:30;;;;;;;53.20;26.40;;;;;;;4.94;76.61;95371.84;4991528;28;20053;-70
2020/12/16 06:15:04;;;;;;;43.75;23.98;;;;;;;5.10;75.82;95380.53;4993606;28;20030;-71
2020/12/16 06:17:35;;;;;;;43.28;24.60;;;;;;;5.33;75.37;95408.25;4991417;28;20055;-69
2020/12/16 06:20:00;;;;;;;39.10;23.00;;;;;;;5.21;75.10;95367.09;4991315;28;20046;-70
2020/12/16 06:22:32;;;;;;;39.95;22.88;;;;;;;5.64;74.81;95412.47;4992289;28;20042;-69
2020/12/16 06:24:58;;;;;;;40.28;22.75;;;;;;;5.66;74.18;95407.69;4989684;28;20031;-71
2020/12/16 06:27:35;;;;;;;34.72;21.10;;;;;;;5.45;73.44;95390.31;4973914;28;20056;-72
2020/12/16 06:30:02;;;;;;;41.03;22.63;;;;;;;5.36;73.86;95442.78;4993322;28;20054;-71
2020/12/16 06:32:37;;;;;;;40.72;22.65;;;;;;;5.36;74.30;95426.97;4973469;28;20050;-69
2020/12/16 06:35:03;;;;;;;47.53;25.45;;;;;;;5.65;74.73;95439.63;4973834;28;20500;-66
2020/12/16 06:37:29;;;;;;;40.13;22.42;;;;;;;5.60;74.61;95406.13;4991171;28;20042;-69
2020/12/16 06:39:54;;;;;;;38.63;22.17;;;;;;;5.58;74.28;95413.53;4973614;28;20041;-69
2020/12/16 06:42:33;;;;;;;40.50;23.55;;;;;;;5.74;74.21;95425.66;4990324;28;20029;-69
2020/12/16 06:45:09;;;;;;;31.73;20.80;;;;;;;5.88;74.04;95444.34;4992018;28;20069;-68
2020/12/16 06:47:34;;;;;;;37.80;22.33;;;;;;;5.25;73.65;95435.16;4991249;28;20042;-69
2020/12/16 06:50:15;;;;;;;36.47;22.85;;;;;;;4.52;77.04;95438.66;4990743;28;20037;-68
2020/12/16 06:52:40;;;;;;;33.50;22.50;;;;;;;4.42;77.25;95433.34;4990724;28;20117;-68
2020/12/16 06:55:07;;;;;;;28.02;19.90;;;;;;;4.68;76.70;95434.25;4973065;28;20106;-69
2020/12/16 06:57:44;;;;;;;37.15;19.50;;;;;;;4.35;76.94;95440.69;4973342;28;20038;-68
2020/12/16 07:00:23;;;;;;;29.80;19.92;;;;;;;3.79;79.54;95450.94;4990679;28;20104;-70
2020/12/16 07:02:49;;;;;;;37.25;21.88;;;;;;;3.81;79.55;95433.03;4991970;28;20026;-69
2020/12/16 07:05:41;;;;;;;28.65;20.38;;;;;;;4.29;78.46;95447.78;4990435;28;20050;-69
2020/12/16 07:08:07;;;;;;;35.00;23.02;;;;;;;4.48;77.56;95461.31;4981639;28;20125;-68
2020/12/16 07:10:36;;;;;;;38.92;21.83;;;;;;;4.28;77.88;95463.84;4986595;28;20122;-68
2020/12/16 07:13:13;;;;;;;34.53;21.20;;;;;;;3.71;79.81;95454.03;4973217;28;20038;-70
2020/12/16 07:15:56;;;;;;;69.03;22.88;;;;;;;4.00;79.79;95465.00;4964792;28;20045;-78
2020/12/16 07:18:52;;;;;;;33.53;21.27;;;;;;;3.61;81.22;95471.31;4977128;28;20031;-67
2020/12/16 07:21:23;;;;;;;37.10;21.90;;;;;;;3.51;81.87;95470.44;4951958;28;20027;-65
2020/12/16 07:24:02;;;;;;;36.85;23.42;;;;;;;3.65;81.49;95455.81;4975398;28;20035;-69
2020/12/16 07:26:29;;;;;;;37.88;22.70;;;;;;;3.61;81.41;95475.78;4971822;28;20135;-70
2020/12/16 07:28:55;;;;;;;33.42;22.13;;;;;;;3.35;82.18;95451.13;4954000;28;20106;-86
2020/12/16 07:31:21;;;;;;;32.03;21.08;;;;;;;4.12;81.25;95487.44;4953473;28;20030;-76
2020/12/16 07:33:47;;;;;;;31.77;20.05;;;;;;;4.12;80.13;95434.00;4970646;28;20046;-71
2020/12/16 07:36:15;;;;;;;33.08;19.90;;;;;;;4.11;79.66;95482.44;4971096;28;20102;-70
2020/12/16 07:38:48;;;;;;;30.17;20.08;;;;;;;4.28;79.10;95485.69;4955675;28;20564;-72
2020/12/16 07:41:21;;;;;;;26.83;18.90;;;;;;;3.74;79.73;95443.78;4953369;28;20038;-71
2020/12/16 07:43:47;;;;;;;26.48;18.90;;;;;;;4.49;78.97;95449.72;4953540;28;20477;-72
2020/12/16 07:46:12;;;;;;;28.77;19.10;;;;;;;5.00;77.95;95488.63;4970934;28;20129;-68
2020/12/16 07:48:38;;;;;;;24.00;17.92;;;;;;;5.03;76.78;95488.91;4970938;28;20046;-68
2020/12/16 07:51:07;;;;;;;23.35;17.23;;;;;;;5.51;76.02;95510.59;4972985;28;20458;-67
2020/12/16 07:53:34;;;;;;;23.10;17.52;;;;;;;5.72;75.05;95514.84;4971739;28;20058;-73
2020/12/16 07:56:01;;;;;;;22.70;16.75;;;;;;;5.61;73.50;95481.59;4953386;28;20038;-70
2020/12/16 07:58:29;;;;;;;18.80;15.27;;;;;;;5.78;73.24;95494.50;4970477;28;20070;-70
2020/12/16 08:01:05;;;;;;;16.95;14.52;;;;;;;6.13;72.67;95530.69;4970370;28;20093;-72
2020/12/16 08:03:33;;;;;;;21.30;15.48;;;;;;;6.06;71.96;95511.72;4971333;28;20485;-84
2020/12/16 08:05:58;;;;;;;19.13;15.23;;;;;;;6.38;71.77;95535.16;4956220;28;20027;-82
2020/12/16 08:08:25;;;;;;;19.02;15.80;;;;;;;6.31;70.92;95512.75;4971166;28;20405;-86
2020/12/16 08:10:50;;;;;;;20.48;14.85;;;;;;;6.44;70.30;95498.94;4970841;28;20031;-73
2020/12/16 08:13:27;;;;;;;14.75;13.13;;;;;;;6.83;69.28;95522.88;4970346;28;20031;-72
2020/12/16 08:16:04;;;;;;;13.68;12.27;;;;;;;6.82;68.83;95489.59;4970653;28;20049;-75
2020/12/16 08:18:29;;;;;;;14.65;13.13;;;;;;;7.36;68.18;95539.03;4970531;28;20054;-75
2020/12/16 08:20:54;;;;;;;18.38;16.40;;;;;;;7.02;67.09;95468.31;4972858;28;20480;-75
2020/12/16 08:23:19;;;;;;;16.17;12.55;;;;;;;7.56;66.69;95515.09;4956359;28;20527;-72
2020/12/16 08:25:45;;;;;;;14.82;13.23;;;;;;;7.96;66.91;95534.41;4974409;28;20039;-70
2020/12/16 08:28:10;;;;;;;14.40;12.48;;;;;;;8.10;65.43;95525.81;4974343;28;20081;-73
2020/12/16 08:30:38;;;;;;;12.88;11.65;;;;;;;8.32;64.81;95528.78;4956860;28;20050;-71
2020/12/16 08:33:13;;;;;;;14.50;13.07;;;;;;;8.68;63.11;95561.06;4957977;28;20023;-71
2020/12/16 08:35:45;;;;;;;14.27;12.57;;;;;;;8.67;63.16;95532.97;4974522;28;20050;-72
2020/12/16 08:38:13;;;;;;;14.20;12.68;;;;;;;8.79;60.52;95536.03;4956769;28;20070;-69
2020/12/16 08:40:44;;;;;;;14.00;12.48;;;;;;;8.96;62.00;95561.34;4973888;28;20107;-69
2020/12/16 08:43:24;;;;;;;14.07;12.65;;;;;;;9.11;62.13;95558.50;4973799;28;20485;-68
2020/12/16 08:46:01;;;;;;;15.48;13.82;;;;;;;9.29;61.69;95559.59;4974095;28;20378;-72
2020/12/16 08:48:27;;;;;;;15.07;13.50;;;;;;;9.33;60.54;95556.09;4973603;28;20085;-71
2020/12/16 08:51:07;;;;;;;16.73;13.23;;;;;;;9.42;60.31;95550.13;4975972;28;20429;-75
2020/12/16 08:53:51;;;;;;;15.15;13.70;;;;;;;9.46;60.16;95553.78;4974032;28;20054;-75
2020/12/16 08:56:33;;;;;;;14.57;13.13;;;;;;;9.44;60.05;95555.97;4956600;28;20035;-75
2020/12/16 08:59:11;;;;;;;15.65;13.90;;;;;;;9.40;60.50;95553.06;4973741;28;20039;-71
2020/12/16 09:01:39;;;;;;;14.05;12.73;;;;;;;9.27;59.97;95540.53;4973191;28;20046;-74
2020/12/16 09:04:06;;;;;;;16.23;14.57;;;;;;;9.21;60.31;95538.97;4973812;28;20035;-74
2020/12/16 09:06:32;;;;;;;14.77;13.18;;;;;;;9.17;60.35;95551.25;4956746;28;20042;-77
2020/12/16 09:08:57;;;;;;;14.00;12.70;;;;;;;9.04;60.46;95528.84;4958427;28;20019;-76
2020/12/16 09:11:23;;;;;;;15.25;13.75;;;;;;;9.21;60.78;95550.38;4972326;28;20097;-76
2020/12/16 09:13:50;;;;;;;14.95;13.48;;;;;;;9.11;60.90;95534.63;4956458;28;20428;-76
2020/12/16 09:16:20;;;;;;;14.95;13.55;;;;;;;9.34;61.34;95548.91;4973951;28;20042;-73
2020/12/16 09:18:46;;;;;;;15.43;13.18;;;;;;;9.41;60.97;95551.19;4973868;28;20110;-76
2020/12/16 09:21:13;;;;;;;14.45;13.02;;;;;;;9.54;60.47;95532.72;4956102;28;20114;-76
2020/12/16 09:23:38;;;;;;;14.95;13.43;;;;;;;9.57;59.60;95533.97;4975457;28;20027;-76
2020/12/16 09:26:03;;;;;;;13.45;12.15;;;;;;;9.62;59.85;95521.44;4973572;28;20460;-76
2020/12/16 09:28:38;;;;;;;14.25;12.98;;;;;;;9.90;59.68;95553.44;4956002;28;20401;-76
2020/12/16 09:31:19;;;;;;;12.77;11.48;;;;;;;10.01;58.96;95559.38;4973023;28;20031;-76
2020/12/16 09:33:56;;;;;;;15.93;14.32;;;;;;;9.96;59.24;95556.81;4970999;28;20054;-75
2020/12/16 09:36:26;;;;;;;14.98;13.38;;;;;;;10.00;59.88;95566.56;4956046;28;20031;-76
2020/12/16 09:38:59;;;;;;;16.17;14.60;;;;;;;9.92;59.77;95564.56;4974978;28;20023;-76
2020/12/16 09:41:26;;;;;;;21.77;16.75;;;;;;;9.87;59.73;95552.13;4973032;28;20043;-74
2020/12/16 09:43:51;;;;;;;22.58;18.10;;;;;;;9.22;60.13;95520.13;4973306;28;20038;-74
2020/12/16 09:46:19;;;;;;;22.45;18.25;;;;;;;9.16;61.25;95554.97;4973034;28;20031;-75
2020/12/16 09:48:49;;;;;;;22.52;18.48;;;;;;;8.84;61.89;95569.66;4955464;28;20050;-74
2020/12/16 09:51:21;;;;;;;27.17;18.88;;;;;;;8.89;61.75;95560.88;4972773;28;20034;-74
2020/12/16 09:53:47;;;;;;;20.00;17.45;;;;;;;9.08;61.82;95561.72;4974954;28;20030;-74
2020/12/16 09:56:27;;;;;;;23.45;18.25;;;;;;;9.28;61.38;95568.63;4955533;28;20121;-74
2020/12/16 09:58:54;;;;;;;22.73;17.65;;;;;;;7.96;64.68;95568.84;4954134;28;20054;-74
2020/12/16 10:01:20;;;;;;;23.88;17.75;;;;;;;8.55;63.25;95556.47;4955032;28;20047;-74
2020/12/16 10:03:49;;;;;;;24.42;17.85;;;;;;;8.76;62.80;95563.13;4972721;28;20400;-75
2020/12/16 10:06:17;;;;;;;19.58;16.67;;;;;;;8.75;63.02;95528.91;4972755;28;20030;-75
2020/12/16 10:08:43;;;;;;;19.73;16.58;;;;;;;9.12;62.39;95570.69;4974511;28;20027;-75
2020/12/16 10:11:16;;;;;;;18.08;15.45;;;;;;;8.36;63.15;95568.78;4972771;28;20396;-76
2020/12/16 10:13:43;;;;;;;17.40;15.30;;;;;;;8.30;64.41;95554.81;4972541;28;20035;-77
2020/12/16 10:16:10;;;;;;;15.82;14.20;;;;;;;8.71;63.84;95560.53;4972496;28;20123;-74
2020/12/16 10:18:36;;;;;;;18.35;15.75;;;;;;;8.59;63.02;95542.31;4954739;28;20039;-77
2020/12/16 10:21:02;;;;;;;14.52;13.05;;;;;;;8.64;63.46;95560.06;4974310;28;20054;-76
2020/12/16 10:23:28;;;;;;;17.77;14.63;;;;;;;8.80;63.05;95558.03;4954686;28;20515;-75
2020/12/16 10:25:53;;;;;;;14.45;12.90;;;;;;;8.99;63.33;95560.75;4972162;28;20070;-77
2020/12/16 10:28:21;;;;;;;16.83;13.65;;;;;;;8.98;62.62;95537.94;4971963;28;20031;-70
2020/12/16 10:30:47;;;;;;;12.68;11.48;;;;;;;9.37;62.19;95564.28;4972140;28;20089;-78
2020/12/16 10:33:13;;;;;;;13.20;11.85;;;;;;;9.52;61.26;95557.94;4953792;28;20113;-74
2020/12/16 10:35:38;;;;;;;11.88;10.73;;;;;;;9.29;60.02;95509.94;4974031;28;20054;-77
2020/12/16 10:38:03;;;;;;;12.95;11.75;;;;;;;9.61;60.77;95550.94;4955019;28;20137;-75
2020/12/16 10:40:31;;;;;;;12.82;10.75;;;;;;;9.78;60.48;95561.84;4954449;28;20125;-78
2020/12/16 10:43:01;;;;;;;12.90;11.43;;;;;;;9.59;59.69;95526.53;4954824;28;20045;-73
2020/12/16 10:45:27;;;;;;;13.02;11.18;;;;;;;9.70;59.59;95535.94;4971745;28;20034;-77
2020/12/16 10:47:57;;;;;;;12.82;11.63;;;;;;;9.96;59.14;95567.44;4957040;28;20027;-77
2020/12/16 10:50:24;;;;;;;12.10;11.00;;;;;;;9.74;59.38;95526.31;4954648;28;20497;-71
2020/12/16 10:52:49;;;;;;;11.38;10.27;;;;;;;10.01;58.84;95562.03;4971980;28;20121;-74
2020/12/16 10:55:15;;;;;;;9.30;8.50;;;;;;;10.11;58.46;95565.34;4954885;28;20412;-75
2020/12/16 10:57:40;;;;;;;9.57;8.77;;;;;;;10.01;57.52;95549.53;4972192;28;20485;-75
2020/12/16 11:00:06;;;;;;;10.10;9.20;;;;;;;9.83;58.08;95527.25;4974124;28;20094;-78
2020/12/16 11:02:31;;;;;;;9.45;8.65;;;;;;;10.15;58.18;95560.22;4954257;28;20551;-77
2020/12/16 11:04:56;;;;;;;9.32;8.38;;;;;;;10.10;58.52;95544.38;4972354;28;20097;-73
2020/12/16 11:07:22;;;;;;;8.73;7.82;;;;;;;10.14;57.78;95548.03;4972130;28;20094;-75
2020/12/16 11:09:47;;;;;;;8.30;7.63;;;;;;;10.07;57.59;95531.63;4954184;28;20038;-74
2020/12/16 11:12:12;;;;;;;8.05;7.25;;;;;;;10.22;58.02;95535.91;4971069;28;20392;-75
2020/12/16 11:14:38;;;;;;;8.38;7.57;;;;;;;10.31;57.85;95555.47;4973801;28;20035;-75
2020/12/16 11:17:04;;;;;;;9.00;8.23;;;;;;;10.27;58.58;95567.78;4953876;28;20043;-66
2020/12/16 11:19:30;;;;;;;9.38;8.45;;;;;;;10.12;58.22;95560.78;4970947;28;20397;-68
2020/12/16 11:21:55;;;;;;;8.25;7.55;;;;;;;10.12;58.20;95545.63;4971530;28;20051;-75
2020/12/16 11:24:23;;;;;;;7.65;7.05;;;;;;;10.35;58.48;95564.47;4971406;28;20109;-75
2020/12/16 11:26:51;;;;;;;7.10;6.60;;;;;;;10.43;57.46;95557.66;4974697;28;20026;-75
2020/12/16 11:29:18;;;;;;;8.30;6.85;;;;;;;10.37;58.12;95536.47;4990458;28;20085;-75
2020/12/16 11:31:51;;;;;;;7.05;6.50;;;;;;;10.53;57.57;95539.66;4989853;28;20049;-76
2020/12/16 11:34:19;;;;;;;7.45;6.88;;;;;;;10.53;56.95;95529.03;4972964;28;20038;-75